Kezdőlap
METAR-TAF:

METAR-TAF

Repülőterek :

Jakutszk, Oroszország

földrajzi szélesség: 62-01N, földrajzi hosszúság: 129-43E, magasság: 103 m

Jelenlegi meteorológiai megfigyelések

A jelentés 30 perccel ezelõtt készült, 21:00 UTC
Északnyugati szél 4 kt
Hőmérséklet 13°C
Páratartalom 33%
Légköri nyomás 1007 hPa
Látótávolság 10 km, vagy több
felhőtlen 1500 m magasságban, és nincs gomolyfelhõ

METAR: UEEE 262100Z 32002MPS CAVOK 13/M03 Q1007 R23L/09//60 NOSIG RMK QFE747

Idő: 06:30 (21:30 UTC)

Előrejelzés

A jelentés 1 órával és 30 perccel ezelõtt készült, 20:00 UTC
Az előrejelzés 26-én 21 óra UTC és 28-én 03 óra UTC között érvényes
Nyugat-északnyugati szél 6 kt széllökések: 16 kt
Látótávolság 10 km, vagy több
felhőtlen 1500 m magasságban, és nincs gomolyfelhõ

TAF: UEEE 262000Z 2621/2803 30003G08MPS CAVOK

Meteorológiai megfigyelések és előrejelzések több, mint 4000 repülőtéren (METAR és TAF jelentéseket).

A térképen piros és sárga pontok jelzik az elérhető meteorológiai állomásokat.

Mozgassa az egeret a pont fölött, hogy megjelenjen az állomás neve.

Azután kattintson az időjárási megfigyelések és előrejelzések megtekintéséhez.

A térkép megváltoztatása: kattintson a fekete keresztel jelölt zöld gombra ráközelítéshez, a vonallal jelölt zöld gombra távolításhoz, vagy a zöld nyilakra a szomszédos térképek eléréséhez.


METAR-TAF: